Time;durP1;ratioP1;P1;durP2;ratioP2;P2;SDS_P1;SDS_P2;PMS_P1;PMS_P2;Temp;Humidity;BMP_temperature;BMP_pressure;BME280_temperature;BME280_humidity;BME280_pressure;Samples;Min_cycle;Max_cycle;Signal;HPM_P1;HPM_P2
2022/05/09 00:00:15;;;;;;;3.50;1.58;;;;;;;10.13;56.24;100121.81;4844908;29;20046;-75
2022/05/09 00:02:41;;;;;;;3.75;1.50;;;;;;;9.96;56.36;100090.63;4845775;29;20502;-77
2022/05/09 00:05:09;;;;;;;2.55;1.40;;;;;;;10.06;56.23;100122.69;4840556;29;20106;-77
2022/05/09 00:07:35;;;;;;;3.13;1.50;;;;;;;10.03;56.55;100120.97;4862576;29;20098;-75
2022/05/09 00:10:01;;;;;;;2.10;1.52;;;;;;;9.95;56.45;100107.09;4837479;29;20046;-76
2022/05/09 00:12:30;;;;;;;5.68;1.92;;;;;;;9.96;55.79;100108.84;4847490;29;20046;-76
2022/05/09 00:14:56;;;;;;;4.60;2.30;;;;;;;10.04;55.99;100112.28;4827707;29;20042;-78
2022/05/09 00:17:22;;;;;;;1.92;1.55;;;;;;;9.91;56.30;100101.06;4811523;29;20045;-78
2022/05/09 00:19:48;;;;;;;4.53;2.40;;;;;;;10.03;56.17;100125.31;4827409;29;20044;-77
2022/05/09 00:22:18;;;;;;;3.65;1.70;;;;;;;9.89;56.05;100097.59;4828899;29;20136;-76
2022/05/09 00:24:44;;;;;;;2.20;1.77;;;;;;;9.86;55.80;100097.59;4835023;29;20081;-76
2022/05/09 00:27:10;;;;;;;1.65;1.42;;;;;;;9.84;55.89;100086.31;4847534;29;20110;-78
2022/05/09 00:29:36;;;;;;;2.83;1.25;;;;;;;9.85;55.83;100084.59;4845037;29;20659;-79
2022/05/09 00:32:02;;;;;;;1.75;1.35;;;;;;;9.97;55.55;100102.78;4829144;29;20077;-78
2022/05/09 00:34:30;;;;;;;1.15;1.05;;;;;;;9.94;55.69;100118.38;4832325;29;20042;-79
2022/05/09 00:36:57;;;;;;;1.95;1.33;;;;;;;9.89;55.58;100110.59;4847160;29;20170;-77
2022/05/09 00:39:23;;;;;;;2.10;1.13;;;;;;;9.90;55.75;100120.13;4845373;29;20066;-79
2022/05/09 00:41:49;;;;;;;1.30;1.10;;;;;;;9.92;55.75;100127.94;4811671;29;20128;-76
2022/05/09 00:44:20;;;;;;;2.35;1.10;;;;;;;9.94;55.91;100132.25;4826800;29;20426;-77
2022/05/09 00:46:49;;;;;;;1.50;1.23;;;;;;;9.94;55.55;100132.25;4842831;29;20050;-77
2022/05/09 00:49:25;;;;;;;2.47;1.40;;;;;;;9.85;55.34;100124.44;4844414;29;20046;-78
2022/05/09 00:51:59;;;;;;;1.70;1.30;;;;;;;9.90;55.48;100132.25;4812892;29;20510;-75
2022/05/09 00:54:30;;;;;;;1.73;1.17;;;;;;;9.97;55.57;100135.72;4843356;29;20042;-77
2022/05/09 00:57:07;;;;;;;4.30;1.67;;;;;;;9.88;55.38;100108.00;4844522;29;20072;-77
2022/05/09 00:59:35;;;;;;;1.60;1.48;;;;;;;9.99;55.48;100123.59;4828115;29;20223;-79
2022/05/09 01:02:02;;;;;;;1.60;1.45;;;;;;;9.96;55.21;100129.63;4829143;29;20075;-77
2022/05/09 01:04:33;;;;;;;3.40;1.60;;;;;;;9.92;55.53;100126.19;4827863;29;20132;-76
2022/05/09 01:06:59;;;;;;;2.47;1.40;;;;;;;9.97;55.53;100133.13;4842891;29;20046;-79
2022/05/09 01:09:26;;;;;;;2.00;1.25;;;;;;;10.05;55.30;100136.53;4825566;29;20034;-76
2022/05/09 01:11:53;;;;;;;1.40;1.30;;;;;;;10.05;55.16;100133.94;4826330;29;20053;-79
2022/05/09 01:14:24;;;;;;;2.58;1.23;;;;;;;10.03;55.30;100139.16;4826246;29;20120;-76
2022/05/09 01:16:51;;;;;;;1.50;1.10;;;;;;;9.94;55.11;100124.44;4812700;29;20046;-79
2022/05/09 01:19:52;;;;;;;2.17;1.20;;;;;;;10.02;55.23;100140.03;4845278;29;20050;-75
2022/05/09 01:22:28;;;;;;;1.35;1.10;;;;;;;9.90;54.91;100116.66;4792634;29;20482;-77
2022/05/09 01:24:56;;;;;;;1.90;1.20;;;;;;;10.02;55.24;100132.22;4812758;29;20046;-77
2022/05/09 01:27:22;;;;;;;2.03;1.27;;;;;;;9.98;55.30;100125.28;4843131;29;20061;-77
2022/05/09 01:30:00;;;;;;;1.95;1.10;;;;;;;9.89;55.54;100133.13;4828082;29;20038;-76
2022/05/09 01:32:32;;;;;;;1.90;1.25;;;;;;;9.83;55.10;100118.38;4840205;29;20061;-76
2022/05/09 01:35:07;;;;;;;2.70;1.40;;;;;;;9.89;54.96;100138.31;4844636;29;20045;-78
2022/05/09 01:37:36;;;;;;;1.88;1.60;;;;;;;9.89;55.48;100146.97;4842835;29;20050;-77
2022/05/09 01:40:02;;;;;;;2.03;1.63;;;;;;;9.80;55.68;100128.81;4839318;29;20067;-80
2022/05/09 01:42:29;;;;;;;1.95;1.50;;;;;;;9.96;55.78;100145.22;4849281;29;20037;-76
2022/05/09 01:44:55;;;;;;;3.00;1.50;;;;;;;9.92;56.11;100133.13;4858712;29;20090;-76
2022/05/09 01:50:06;;;;;;;2.63;1.55;;;;;;;9.87;56.04;100120.13;4841156;29;20045;-75
2022/05/09 01:52:33;;;;;;;3.22;2.10;;;;;;;9.84;56.82;100117.50;4831801;29;20083;-76
2022/05/09 01:54:59;;;;;;;3.38;1.90;;;;;;;9.97;56.46;100138.31;4825373;29;20038;-78
2022/05/09 01:57:25;;;;;;;2.78;1.80;;;;;;;9.97;56.73;100131.38;4826217;29;20045;-76
2022/05/09 01:59:51;;;;;;;3.67;1.90;;;;;;;9.98;56.87;100121.84;4841058;29;20052;-78
2022/05/09 02:02:20;;;;;;;2.10;1.65;;;;;;;10.06;56.79;100133.09;4842878;29;20078;-76
2022/05/09 02:04:49;;;;;;;2.83;1.95;;;;;;;9.97;57.38;100122.72;4827139;29;20062;-77
2022/05/09 02:07:17;;;;;;;2.33;2.13;;;;;;;10.05;56.72;100140.03;4842787;29;20081;-77
2022/05/09 02:09:45;;;;;;;2.08;1.88;;;;;;;10.00;57.15;100139.16;4842258;29;20048;-76
2022/05/09 02:12:13;;;;;;;2.30;1.80;;;;;;;10.04;57.35;100137.44;4826529;29;20069;-77
2022/05/09 02:14:40;;;;;;;3.55;2.15;;;;;;;9.93;57.37;100122.72;4824628;29;20569;-76
2022/05/09 02:17:07;;;;;;;2.42;1.90;;;;;;;10.06;57.65;100128.75;4843394;29;20132;-76
2022/05/09 02:19:34;;;;;;;2.30;2.10;;;;;;;10.15;57.55;100137.44;4841812;29;20052;-78
2022/05/09 02:22:00;;;;;;;3.80;2.33;;;;;;;10.20;57.41;100133.06;4826309;29;20045;-78
2022/05/09 02:24:29;;;;;;;3.65;2.08;;;;;;;10.02;57.14;100134.84;4825268;29;20049;-77
2022/05/09 02:26:56;;;;;;;2.67;2.00;;;;;;;9.92;57.35;100117.53;4840960;29;20174;-75
2022/05/09 02:29:22;;;;;;;2.83;1.70;;;;;;;10.02;57.81;100136.59;4842299;29;20086;-78
2022/05/09 02:31:48;;;;;;;2.20;1.90;;;;;;;10.07;57.39;100135.69;4842159;29;20057;-76
2022/05/09 02:34:14;;;;;;;2.10;1.60;;;;;;;10.10;57.15;100142.63;4809566;29;20037;-77
2022/05/09 02:36:41;;;;;;;2.67;1.60;;;;;;;10.01;57.08;100127.03;4841833;29;20403;-75
2022/05/09 02:39:07;;;;;;;2.20;1.75;;;;;;;10.02;57.25;100129.63;4826650;29;20037;-77
2022/05/09 02:41:33;;;;;;;4.50;1.88;;;;;;;10.04;57.13;100140.03;4825397;29;20042;-78
2022/05/09 02:43:59;;;;;;;2.90;1.80;;;;;;;10.04;56.91;100146.09;4808881;29;20072;-78
2022/05/09 02:46:25;;;;;;;2.10;1.70;;;;;;;9.96;56.75;100127.03;4840205;29;20060;-77
2022/05/09 02:48:51;;;;;;;3.38;1.80;;;;;;;10.02;56.62;100144.38;4842086;29;20087;-78
2022/05/09 02:51:17;;;;;;;3.97;1.65;;;;;;;9.87;56.90;100125.31;4825290;29;20045;-78
2022/05/09 02:53:46;;;;;;;2.03;1.60;;;;;;;9.95;56.65;100138.28;4825199;29;20061;-76
2022/05/09 02:56:12;;;;;;;2.53;1.58;;;;;;;10.01;56.56;100138.28;4840588;29;20053;-79
2022/05/09 02:58:38;;;;;;;2.53;1.67;;;;;;;9.99;56.49;100144.38;4842470;29;20049;-75
2022/05/09 03:01:04;;;;;;;3.28;1.50;;;;;;;9.93;56.07;100135.72;4842735;29;20052;-77
2022/05/09 03:06:15;;;;;;;3.38;1.65;;;;;;;10.14;55.67;100148.69;4847262;29;20061;-78
2022/05/09 03:08:41;;;;;;;2.40;1.42;;;;;;;10.14;55.97;100133.94;4831560;29;20050;-77
2022/05/09 03:11:07;;;;;;;4.07;1.95;;;;;;;10.08;55.42;100124.44;4825491;29;20156;-76
2022/05/09 03:13:34;;;;;;;3.42;1.70;;;;;;;10.14;55.37;100133.94;4840534;29;20206;-79
2022/05/09 03:16:01;;;;;;;2.00;1.52;;;;;;;10.07;55.38;100120.09;4831516;29;20041;-76
2022/05/09 03:18:27;;;;;;;2.67;1.80;;;;;;;10.05;55.49;100108.84;4863224;29;20037;-75
2022/05/09 03:20:53;;;;;;;2.90;1.83;;;;;;;10.23;55.35;100125.25;4860636;29;20046;-79
2022/05/09 03:23:19;;;;;;;2.33;1.67;;;;;;;10.25;55.07;100121.81;4826096;29;20052;-75
2022/05/09 03:25:45;;;;;;;2.97;1.50;;;;;;;10.29;54.92;100127.84;4841366;29;20129;-78
2022/05/09 03:28:15;;;;;;;3.85;1.50;;;;;;;10.44;55.07;100150.41;4840977;29;20046;-78
2022/05/09 03:30:47;;;;;;;3.20;1.75;;;;;;;10.29;54.51;100125.25;4839873;29;20052;-77
2022/05/09 03:33:14;;;;;;;3.35;1.55;;;;;;;10.45;54.40;100146.03;4809136;29;20046;-75
2022/05/09 03:35:41;;;;;;;2.15;1.65;;;;;;;10.32;54.01;100129.56;4845756;29;20050;-78
2022/05/09 03:38:07;;;;;;;2.13;1.60;;;;;;;10.49;54.22;100153.81;4844737;29;20050;-76
2022/05/09 03:40:34;;;;;;;4.50;1.55;;;;;;;10.37;53.89;100133.03;4845254;29;20046;-76
2022/05/09 03:43:01;;;;;;;3.00;1.65;;;;;;;10.31;53.85;100114.84;4845776;29;20483;-78
2022/05/09 03:45:28;;;;;;;5.60;2.50;;;;;;;10.55;53.78;100151.22;4828069;29;20069;-75
2022/05/09 03:47:54;;;;;;;4.47;1.60;;;;;;;10.23;53.50;100102.72;4840241;29;20049;-77
2022/05/09 03:50:21;;;;;;;2.33;1.50;;;;;;;10.53;53.43;100152.97;4839123;29;20529;-77
2022/05/09 03:52:49;;;;;;;2.72;1.58;;;;;;;10.35;52.96;100122.66;4839048;29;20407;-77
2022/05/09 03:55:15;;;;;;;2.20;1.60;;;;;;;10.43;53.10;100159.06;4839458;29;20069;-76
2022/05/09 03:57:51;;;;;;;2.08;1.55;;;;;;;10.43;53.06;100161.66;4843559;29;20102;-77
2022/05/09 04:00:20;;;;;;;1.85;1.50;;;;;;;10.49;53.17;100164.25;4826005;29;20053;-79
2022/05/09 04:02:46;;;;;;;1.92;1.50;;;;;;;10.53;53.13;100163.38;4826153;29;20053;-76
2022/05/09 04:05:17;;;;;;;3.78;1.80;;;;;;;10.61;52.54;100170.28;4841035;29;20133;-78
2022/05/09 04:07:53;;;;;;;3.90;1.80;;;;;;;10.58;52.39;100149.47;4826667;29;20198;-77
2022/05/09 04:10:23;;;;;;;2.53;1.60;;;;;;;10.73;52.58;100156.38;4843624;29;20042;-78
2022/05/09 04:12:49;;;;;;;2.63;1.80;;;;;;;10.68;52.46;100135.56;4825925;29;20075;-78
2022/05/09 04:18:00;;;;;;;3.95;2.17;;;;;;;10.94;51.97;100161.50;4810733;29;20046;-78
2022/05/09 04:20:29;;;;;;;3.92;1.90;;;;;;;10.95;51.75;100160.63;4825533;29;20127;-78
2022/05/09 04:22:59;;;;;;;13.90;2.10;;;;;;;10.96;51.78;100157.13;4810694;29;20061;-78
2022/05/09 04:25:26;;;;;;;3.50;1.92;;;;;;;11.09;51.69;100170.97;4810313;29;20053;-78
2022/05/09 04:27:54;;;;;;;2.45;1.90;;;;;;;11.03;51.28;100144.09;4842030;29;20188;-80
2022/05/09 04:30:19;;;;;;;3.80;1.80;;;;;;;10.99;51.28;100136.28;4841682;29;20038;-78
2022/05/09 04:32:45;;;;;;;4.25;2.00;;;;;;;11.27;51.66;100169.97;4824984;29;20088;-76
2022/05/09 04:35:19;;;;;;;2.70;1.67;;;;;;;11.29;50.22;100181.25;4842241;29;20422;-78
2022/05/09 04:37:48;;;;;;;2.40;1.60;;;;;;;11.27;50.62;100177.78;4842005;29;20525;-77
2022/05/09 04:40:20;;;;;;;2.65;1.83;;;;;;;11.06;50.99;100157.97;4810734;29;20077;-80
2022/05/09 04:42:46;;;;;;;3.97;1.80;;;;;;;11.28;50.24;100184.75;4840337;29;20054;-79
2022/05/09 04:45:14;;;;;;;4.60;1.98;;;;;;;11.40;50.52;100194.22;4825865;29;20038;-77
2022/05/09 04:47:40;;;;;;;3.00;1.60;;;;;;;11.47;50.38;100175.94;4824953;29;20425;-79
2022/05/09 04:50:09;;;;;;;4.90;1.98;;;;;;;11.77;50.48;100190.50;4848554;29;20052;-79
2022/05/09 04:52:35;;;;;;;3.33;2.00;;;;;;;11.98;50.00;100189.50;4855991;29;20120;-76
2022/05/09 04:55:01;;;;;;;3.38;1.75;;;;;;;12.19;49.89;100179.78;4845264;29;20067;-83
2022/05/09 04:57:27;;;;;;;2.85;1.98;;;;;;;12.46;49.67;100162.97;4830202;29;20080;-77
2022/05/09 04:59:53;;;;;;;4.13;1.67;;;;;;;12.72;49.04;100184.41;4825707;29;20073;-79
2022/05/09 05:02:19;;;;;;;2.72;1.92;;;;;;;12.98;49.04;100175.41;4840003;29;20532;-77
2022/05/09 05:04:45;;;;;;;4.68;2.17;;;;;;;13.32;47.79;100175.81;4841919;29;20049;-77
2022/05/09 05:07:10;;;;;;;2.47;1.67;;;;;;;13.54;47.84;100172.91;4825114;29;20038;-79
2022/05/09 05:09:39;;;;;;;4.70;1.80;;;;;;;13.90;47.35;100173.25;4840960;29;20053;-78
2022/05/09 05:12:09;;;;;;;2.80;1.70;;;;;;;13.94;46.60;100137.41;4810033;29;20049;-80
2022/05/09 05:14:34;;;;;;;2.53;1.90;;;;;;;14.37;45.87;100178.53;4825107;29;20118;-79
2022/05/09 05:17:00;;;;;;;3.50;1.65;;;;;;;14.64;45.31;100178.88;4841809;29;20521;-80
2022/05/09 05:19:27;;;;;;;8.38;4.78;;;;;;;14.97;44.95;100179.13;4825147;29;20098;-77
2022/05/09 05:21:56;;;;;;;4.00;2.70;;;;;;;15.27;44.09;100171.50;4825465;29;20042;-78
2022/05/09 05:24:22;;;;;;;5.78;2.38;;;;;;;15.63;43.13;100173.31;4841468;29;20404;-79
2022/05/09 05:26:47;;;;;;;3.33;1.65;;;;;;;15.68;43.17;100167.94;4841200;29;20049;-79
2022/05/09 05:29:15;;;;;;;4.30;1.73;;;;;;;16.33;42.94;100159.28;4824285;29;20042;-78
2022/05/09 05:31:41;;;;;;;2.95;1.60;;;;;;;17.61;41.71;100152.06;4840372;29;20098;-79
2022/05/09 05:34:07;;;;;;;4.60;1.60;;;;;;;19.06;39.25;100165.53;4824555;29;20572;-81
2022/05/09 05:36:33;;;;;;;6.53;1.50;;;;;;;19.58;37.67;100167.88;4841616;29;20046;-78
2022/05/09 05:38:59;;;;;;;3.17;1.40;;;;;;;20.08;36.72;100150.88;4843030;29;20558;-77
2022/05/09 05:41:24;;;;;;;3.97;1.60;;;;;;;20.77;35.52;100140.81;4846018;29;20060;-81
2022/05/09 05:43:51;;;;;;;5.72;1.48;;;;;;;20.68;34.70;100149.16;4810978;29;20128;-80
2022/05/09 05:46:17;;;;;;;2.45;1.33;;;;;;;20.04;34.55;100136.06;4808979;29;20570;-78
2022/05/09 05:48:43;;;;;;;2.00;1.55;;;;;;;19.61;34.41;100162.47;4841014;29;20589;-78
2022/05/09 05:51:09;;;;;;;2.67;1.30;;;;;;;19.14;34.77;100165.22;4825665;29;20046;-77
2022/05/09 05:53:37;;;;;;;4.13;1.95;;;;;;;19.01;34.85;100168.31;4799939;29;20046;-76
2022/05/09 05:56:06;;;;;;;1.55;1.40;;;;;;;18.66;34.34;100141.47;4825726;29;20064;-80
2022/05/09 05:58:32;;;;;;;3.90;1.40;;;;;;;18.47;33.87;100151.81;4812051;29;20084;-77
2022/05/09 06:00:58;;;;;;;3.25;1.40;;;;;;;18.08;34.26;100170.75;4811264;29;20080;-82
2022/05/09 06:03:24;;;;;;;2.35;1.40;;;;;;;17.49;34.48;100162.13;4841274;29;20050;-80
2022/05/09 06:05:50;;;;;;;3.25;1.35;;;;;;;16.96;34.60;100153.19;4840574;29;20046;-78
2022/05/09 06:08:19;;;;;;;4.47;1.67;;;;;;;17.01;35.02;100182.84;4840977;29;20498;-78
2022/05/09 06:10:46;;;;;;;3.22;1.30;;;;;;;16.81;35.04;100175.50;4842828;29;20650;-79
2022/05/09 06:13:17;;;;;;;2.38;1.50;;;;;;;16.34;35.03;100155.75;4842977;29;20252;-78
2022/05/09 06:15:50;;;;;;;2.28;1.40;;;;;;;16.42;35.38;100159.06;4841266;29;20041;-77
2022/05/09 06:18:17;;;;;;;1.75;0.98;;;;;;;16.33;35.08;100174.19;4811261;29;20502;-79
2022/05/09 06:20:44;;;;;;;2.00;1.00;;;;;;;16.21;35.09;100178.00;4826825;29;20094;-77
2022/05/09 06:23:13;;;;;;;3.15;1.10;;;;;;;15.94;35.28;100169.94;4811739;29;20073;-80
2022/05/09 06:25:44;;;;;;;2.08;1.20;;;;;;;15.62;35.23;100164.56;4826615;29;20478;-78
2022/05/09 06:28:10;;;;;;;1.70;1.10;;;;;;;15.65;35.71;100202.97;4857164;29;20048;-76
2022/05/09 06:30:39;;;;;;;1.58;1.08;;;;;;;15.45;35.35;100203.44;4844698;29;20081;-77
2022/05/09 06:33:06;;;;;;;1.52;1.10;;;;;;;15.16;35.46;100179.59;4850065;29;20092;-78
2022/05/09 06:35:40;;;;;;;2.63;1.23;;;;;;;14.87;35.55;100156.63;4831557;29;20057;-77
2022/05/09 06:38:14;;;;;;;3.75;1.30;;;;;;;15.23;35.86;100200.44;4825790;29;20141;-79
2022/05/09 06:40:46;;;;;;;1.42;0.82;;;;;;;15.09;36.12;100206.81;4825191;29;20045;-79
2022/05/09 06:43:13;;;;;;;2.45;2.03;;;;;;;15.18;36.26;100211.88;4825114;29;20088;-80
2022/05/09 06:45:41;;;;;;;3.15;1.75;;;;;;;15.41;36.29;100207.91;4809655;29;20491;-78
2022/05/09 06:48:08;;;;;;;2.63;1.50;;;;;;;15.92;36.01;100204.09;4840601;29;20422;-79
2022/05/09 06:50:35;;;;;;;2.50;1.30;;;;;;;16.46;35.34;100199.22;4840577;29;20101;-79
2022/05/09 06:53:10;;;;;;;3.25;1.30;;;;;;;17.01;34.97;100196.84;4826818;29;20109;-78
2022/05/09 06:55:36;;;;;;;1.67;1.20;;;;;;;17.23;34.35;100177.78;4826288;29;20049;-79
2022/05/09 06:58:10;;;;;;;2.50;1.30;;;;;;;17.42;33.29;100198.28;4845770;29;20053;-80
2022/05/09 07:00:37;;;;;;;5.32;1.73;;;;;;;17.19;33.50;100204.22;4844315;29;20121;-81
2022/05/09 07:03:04;;;;;;;2.75;1.50;;;;;;;17.08;33.68;100183.53;4828519;29;20463;-79
2022/05/09 07:05:42;;;;;;;3.65;1.20;;;;;;;17.60;33.47;100187.19;4830714;29;20137;-79
2022/05/09 07:08:09;;;;;;;3.10;1.20;;;;;;;19.34;32.50;100191.69;4845666;29;20050;-78
2022/05/09 07:10:39;;;;;;;3.47;1.30;;;;;;;20.07;31.22;100182.66;4800002;29;20049;-75
2022/05/09 07:13:06;;;;;;;3.80;1.13;;;;;;;21.50;30.26;100172.66;4831429;29;20136;-81
2022/05/09 07:15:33;;;;;;;1.85;1.10;;;;;;;21.37;28.71;100143.28;4830921;29;20046;-78
2022/05/09 07:17:59;;;;;;;1.85;1.20;;;;;;;20.60;29.06;100189.16;4829256;29;20084;-79
2022/05/09 07:20:30;;;;;;;2.42;1.25;;;;;;;19.68;29.16;100190.31;4844265;29;20132;-79
2022/05/09 07:23:05;;;;;;;3.15;1.30;;;;;;;19.03;29.67;100192.00;4843149;29;20061;-80
2022/05/09 07:25:31;;;;;;;2.80;1.60;;;;;;;18.71;30.32;100205.44;4846861;29;20056;-78
2022/05/09 07:27:57;;;;;;;1.65;1.50;;;;;;;18.84;30.41;100200.56;4845915;29;20053;-79
2022/05/09 07:30:23;;;;;;;5.53;1.63;;;;;;;20.26;30.02;100196.78;4830883;29;20200;-79
2022/05/09 07:32:52;;;;;;;2.65;1.33;;;;;;;21.70;28.13;100180.59;4834846;29;20045;-78
2022/05/09 07:35:23;;;;;;;2.28;1.55;;;;;;;21.86;26.99;100186.84;4819074;29;20474;-79
2022/05/09 07:37:50;;;;;;;2.67;1.50;;;;;;;23.37;27.62;100173.69;4852621;29;20636;-81
2022/05/09 07:40:18;;;;;;;2.35;1.30;;;;;;;25.38;25.21;100144.75;4850654;29;20103;-78
2022/05/09 07:42:49;;;;;;;1.45;1.15;;;;;;;26.53;23.91;100161.09;4838751;29;20081;-80
2022/05/09 07:45:18;;;;;;;2.05;1.02;;;;;;;26.32;22.71;100180.31;4854091;29;20054;-80
2022/05/09 07:47:47;;;;;;;1.65;1.10;;;;;;;25.91;22.37;100176.81;4838983;29;20050;-80
2022/05/09 07:50:20;;;;;;;1.20;1.00;;;;;;;24.84;23.44;100185.47;4822289;29;20046;-81
2022/05/09 07:52:47;;;;;;;2.20;1.23;;;;;;;24.66;24.33;100197.13;4835260;29;20041;-77
2022/05/09 07:55:17;;;;;;;2.17;1.13;;;;;;;26.39;22.61;100191.41;4796804;29;20029;-77
2022/05/09 07:57:45;;;;;;;2.22;1.20;;;;;;;28.22;21.07;100117.56;4828681;29;20053;-79
2022/05/09 08:00:14;;;;;;;3.72;1.95;;;;;;;30.01;20.11;100129.97;4806371;29;20045;-80
2022/05/09 08:02:51;;;;;;;2.72;1.20;;;;;;;32.17;18.63;100127.69;4859060;29;20118;-77
2022/05/09 08:05:37;;;;;;;2.35;1.30;;;;;;;32.92;17.30;100118.75;4851228;29;20045;-80
2022/05/09 08:08:05;;;;;;;2.75;1.30;;;;;;;33.18;16.85;100163.84;4796440;29;20050;-80
2022/05/09 08:10:31;;;;;;;1.52;1.33;;;;;;;32.01;17.10;100131.00;4840635;29;20048;-77
2022/05/09 08:12:58;;;;;;;1.92;1.15;;;;;;;32.50;16.94;100178.47;4843691;29;20592;-79
2022/05/09 08:15:26;;;;;;;3.15;1.48;;;;;;;34.01;15.88;100134.94;4861956;29;20050;-78
2022/05/09 08:17:53;;;;;;;3.38;1.73;;;;;;;35.75;14.69;100160.72;4844747;29;20045;-80
2022/05/09 08:20:20;;;;;;;3.05;1.13;;;;;;;36.56;14.11;100120.13;4845844;29;20102;-81
2022/05/09 08:23:07;;;;;;;3.05;1.30;;;;;;;37.48;12.98;100140.28;4858124;29;20057;-79
2022/05/09 08:25:42;;;;;;;3.83;1.65;;;;;;;38.45;12.32;100154.13;4838631;29;20054;-79
2022/05/09 08:28:08;;;;;;;4.13;1.25;;;;;;;35.87;12.03;100144.97;4844537;29;20041;-80
2022/05/09 08:30:37;;;;;;;1.88;1.40;;;;;;;31.94;13.94;100172.91;4859131;29;20046;-79
2022/05/09 08:33:10;;;;;;;1.58;1.13;;;;;;;28.54;15.33;100193.59;4842508;29;20121;-79
2022/05/09 08:35:37;;;;;;;4.78;1.30;;;;;;;25.63;16.66;100097.88;4844434;29;20134;-78
2022/05/09 08:38:05;;;;;;;3.20;1.30;;;;;;;23.72;18.81;100120.34;4844899;29;20053;-78
2022/05/09 08:40:57;;;;;;;3.35;1.40;;;;;;;22.74;20.64;100223.94;4846334;29;20041;-77
2022/05/09 08:43:32;;;;;;;2.63;1.58;;;;;;;20.95;21.76;100111.81;4857952;29;20058;-81
2022/05/09 08:46:26;;;;;;;3.13;1.77;;;;;;;20.34;22.89;100130.38;4859046;29;20607;-78
2022/05/09 08:49:20;;;;;;;2.97;1.30;;;;;;;20.11;23.68;100176.28;4861456;29;20053;-81
2022/05/09 08:52:25;;;;;;;5.20;1.70;;;;;;;19.93;24.26;100226.31;4842301;29;20110;-78
2022/05/09 08:54:53;;;;;;;2.97;1.52;;;;;;;19.70;24.62;100229.88;4860505;29;20053;-80
2022/05/09 08:57:36;;;;;;;2.83;1.77;;;;;;;19.54;25.15;100196.16;4843514;29;20053;-78
2022/05/09 09:00:18;;;;;;;4.70;2.20;;;;;;;20.21;24.48;100160.88;4842821;29;20038;-77
2022/05/09 09:03:15;;;;;;;3.63;2.10;;;;;;;20.96;23.95;100190.25;4844501;29;20116;-77
2022/05/09 09:05:48;;;;;;;1.52;1.27;;;;;;;22.83;23.29;100164.22;4859406;29;20042;-77
2022/05/09 09:08:19;;;;;;;2.25;1.15;;;;;;;25.72;20.68;100190.50;4837002;29;20065;-80
2022/05/09 09:10:59;;;;;;;1.88;0.90;;;;;;;26.55;19.52;100160.03;4835946;29;20065;-78
2022/05/09 09:13:47;;;;;;;1.55;1.27;;;;;;;24.98;19.60;100190.78;4835520;29;20045;-78
2022/05/09 09:16:38;;;;;;;2.63;1.20;;;;;;;23.19;20.41;100202.09;4834696;29;20049;-78
2022/05/09 09:19:27;;;;;;;2.28;1.20;;;;;;;21.58;21.54;100208.50;4834692;29;20046;-77
2022/05/09 09:22:07;;;;;;;1.55;1.10;;;;;;;19.94;22.72;100191.06;4850149;29;20073;-81
2022/05/09 09:25:01;;;;;;;4.32;2.45;;;;;;;18.95;23.25;100227.41;4803981;29;20093;-80
2022/05/09 09:27:32;;;;;;;3.03;1.50;;;;;;;18.38;24.44;100237.31;4835553;29;20037;-79
2022/05/09 09:30:10;;;;;;;3.47;1.38;;;;;;;18.42;25.30;100243.34;4834671;29;20048;-78
2022/05/09 09:32:43;;;;;;;3.50;1.20;;;;;;;19.38;24.68;100221.44;4849123;29;20062;-79
2022/05/09 09:35:58;;;;;;;5.32;1.30;;;;;;;21.07;23.90;100157.03;4834456;29;20430;-81
2022/05/09 09:38:46;;;;;;;3.17;1.35;;;;;;;23.97;21.41;100228.72;4828088;29;20033;-78
2022/05/09 09:41:15;;;;;;;2.38;1.38;;;;;;;25.48;19.42;100206.31;4858800;29;20073;-76
2022/05/09 09:43:41;;;;;;;2.85;1.10;;;;;;;25.99;19.92;100203.81;4839352;29;20050;-81
2022/05/09 09:46:17;;;;;;;2.85;1.30;;;;;;;25.89;18.94;100248.03;4824197;29;20045;-81
2022/05/09 09:49:09;;;;;;;2.97;1.15;;;;;;;24.94;19.52;100259.31;4860984;29;20069;-81
2022/05/09 09:51:48;;;;;;;3.72;1.30;;;;;;;22.51;21.71;100276.38;4850570;29;20069;-82
2022/05/09 09:54:33;;;;;;;3.25;1.20;;;;;;;20.46;23.93;100246.09;4820619;29;20532;-80
2022/05/09 09:57:28;;;;;;;1.33;1.00;;;;;;;19.14;25.24;100224.09;4852087;29;20045;-79
2022/05/09 10:00:15;;;;;;;2.00;1.33;;;;;;;20.14;26.38;100300.31;4835535;29;20125;-77
2022/05/09 10:02:42;;;;;;;1.60;1.10;;;;;;;19.86;26.11;100224.84;4853405;29;20077;-79
2022/05/09 10:05:21;;;;;;;2.80;1.55;;;;;;;19.55;25.85;100277.03;4852792;29;20052;-79
2022/05/09 10:07:52;;;;;;;1.98;1.35;;;;;;;19.63;27.11;100323.41;4821803;29;20125;-77
2022/05/09 10:10:28;;;;;;;2.22;1.20;;;;;;;19.37;26.31;100151.13;4823523;29;20056;-80
2022/05/09 10:12:57;;;;;;;2.42;1.20;;;;;;;21.46;25.51;100299.94;4861189;29;20361;-79
2022/05/09 10:15:45;;;;;;;1.40;1.20;;;;;;;22.23;25.28;100316.63;4841066;29;20042;-78
2022/05/09 10:18:26;;;;;;;2.75;1.27;;;;;;;21.29;24.58;100221.34;4854627;29;20038;-80
2022/05/09 10:20:55;;;;;;;2.00;1.40;;;;;;;23.05;24.78;100295.72;4836060;29;20045;-80
2022/05/09 10:26:34;;;;;;;1.80;1.00;;;;;;;23.24;23.54;100259.31;4853122;29;20045;-80
2022/05/09 10:29:19;;;;;;;4.10;1.20;;;;;;;22.73;23.14;100307.09;4818592;29;20042;-80
2022/05/09 10:31:59;;;;;;;3.30;1.40;;;;;;;20.85;23.78;100132.56;4835528;29;20061;-81
2022/05/09 10:35:07;;;;;;;3.90;1.40;;;;;;;21.01;24.33;100300.19;4825556;29;20054;-81
2022/05/09 10:37:52;;;;;;;6.82;1.50;;;;;;;20.37;24.93;100303.78;4818209;29;20109;-81
2022/05/09 10:40:42;;;;;;;2.97;1.60;;;;;;;19.67;25.43;100298.63;4834699;29;20052;-80
2022/05/09 10:43:28;;;;;;;9.85;1.00;;;;;;;18.27;25.99;100184.16;4806580;29;20050;-76
2022/05/09 10:45:57;;;;;;;4.03;1.70;;;;;;;18.00;25.93;100216.63;4835044;29;20110;-79
2022/05/09 10:48:29;;;;;;;7.38;2.80;;;;;;;18.35;26.54;100312.06;4850621;29;20152;-79
2022/05/09 10:51:03;;;;;;;;;;;;;;;18.43;26.75;100306.53;4833811;29;20046;-79
2022/05/09 10:53:38;;;;;;;10.10;6.22;;;;;;;18.39;26.75;100319.84;4833043;29;19928;-80
2022/05/09 10:56:53;;;;;;;3.40;2.22;;;;;;;17.96;26.62;100283.44;4852253;29;20057;-79
2022/05/09 10:59:31;;;;;;;7.68;4.60;;;;;;;18.29;26.82;100306.13;4760499;30;20154;-79
2022/05/09 11:02:24;;;;;;;2.45;1.88;;;;;;;17.82;26.82;100235.63;4839029;29;20061;-78
2022/05/09 11:04:53;;;;;;;4.47;2.33;;;;;;;18.01;27.26;100307.84;4854242;29;20049;-84
2022/05/09 11:07:53;;;;;;;;;;;;;;;;;;;;;
2022/05/09 11:11:25;;;;;;;2.55;2.00;;;;;;;16.93;28.51;100188.31;4840799;29;19928;-82
2022/05/09 11:14:04;;;;;;;2.75;1.85;;;;;;;16.85;28.50;100225.31;4846502;29;20018;-83
2022/05/09 11:17:11;;;;;;;5.63;2.65;;;;;;;17.22;28.78;100309.31;4866859;29;20078;-81
2022/05/09 11:20:12;;;;;;;2.80;1.83;;;;;;;17.19;28.46;100309.41;4841204;29;20106;-82
2022/05/09 11:23:02;;;;;;;5.35;2.05;;;;;;;17.17;28.49;100312.09;4842308;29;20426;-81
2022/05/09 11:25:50;;;;;;;5.43;3.05;;;;;;;17.02;27.99;100321.25;4843942;29;20046;-83
2022/05/09 11:28:19;;;;;;;3.00;1.27;;;;;;;16.74;28.74;100321.97;4859828;29;20057;-80
2022/05/09 11:31:13;;;;;;;4.15;2.00;;;;;;;16.58;28.77;100321.50;4843196;29;20045;-79
2022/05/09 11:33:59;;;;;;;4.00;2.03;;;;;;;16.40;29.02;100334.19;4858390;29;20070;-79
2022/05/09 11:36:59;;;;;;;2.90;1.40;;;;;;;15.71;29.36;100318.25;4859208;29;20090;-79
2022/05/09 11:39:46;;;;;;;4.35;1.40;;;;;;;15.12;30.68;100326.44;4857606;29;20170;-78
2022/05/09 11:45:31;;;;;;;3.55;1.48;;;;;;;14.48;31.15;100269.06;4853972;29;20070;-79
2022/05/09 11:48:21;;;;;;;8.68;1.50;;;;;;;14.77;32.17;100352.44;4778714;30;20477;-78
2022/05/09 11:51:01;;;;;;;;;;;;;;;14.78;32.65;100361.13;4836797;29;20503;-79
2022/05/09 11:53:39;;;;;;;1.05;0.93;;;;;;;14.69;32.45;100357.78;4851253;29;19920;-80
2022/05/09 11:56:09;;;;;;;2.42;0.90;;;;;;;14.34;33.10;100358.34;4834674;29;20042;-80
2022/05/09 11:58:39;;;;;;;1.23;0.80;;;;;;;13.57;33.75;100253.06;4804940;29;20140;-77
2022/05/09 12:01:05;;;;;;;1.98;1.15;;;;;;;13.64;34.24;100323.56;4856196;29;20098;-81
2022/05/09 12:03:46;;;;;;;1.83;1.00;;;;;;;13.46;34.56;100369.09;4854836;29;20049;-79
2022/05/09 12:06:35;;;;;;;1.43;0.93;;;;;;;13.04;35.24;100364.28;4854564;29;20052;-77